Time;durP1;ratioP1;P1;durP2;ratioP2;P2;SDS_P1;SDS_P2;PMS_P1;PMS_P2;Temp;Humidity;BMP_temperature;BMP_pressure;BME280_temperature;BME280_humidity;BME280_pressure;Samples;Min_cycle;Max_cycle;Signal;HPM_P1;HPM_P2
2022/05/11 00:01:13;;;;;;;7.25;3.85;;;;;;;19.96;50.26;100617.97;5027261;28;20064;-60
2022/05/11 00:03:41;;;;;;;6.85;3.92;;;;;;;19.89;51.65;100622.22;5026973;28;21153;-56
2022/05/11 00:06:08;;;;;;;11.05;4.10;;;;;;;19.82;54.51;100631.84;5026185;28;20068;-53
2022/05/11 00:08:35;;;;;;;7.28;4.22;;;;;;;19.69;55.61;100627.69;5025613;28;20453;-55
2022/05/11 00:11:04;;;;;;;5.38;4.05;;;;;;;19.61;55.41;100616.91;5026951;28;20054;-51
2022/05/11 00:13:32;;;;;;;6.78;4.60;;;;;;;19.58;56.70;100630.50;5027730;28;20056;-58
2022/05/11 00:16:00;;;;;;;8.85;4.70;;;;;;;19.50;58.00;100622.41;5027152;28;20510;-54
2022/05/11 00:18:27;;;;;;;14.93;4.47;;;;;;;19.44;58.41;100614.97;5027244;28;20056;-56
2022/05/11 00:20:54;;;;;;;5.68;4.95;;;;;;;19.37;59.73;100612.06;5026018;28;20041;-55
2022/05/11 00:23:21;;;;;;;8.00;4.65;;;;;;;19.24;60.33;100616.91;5028379;28;20045;-57
2022/05/11 00:25:48;;;;;;;6.55;4.28;;;;;;;19.17;60.84;100611.28;5023552;28;20232;-54
2022/05/11 00:28:15;;;;;;;9.88;5.07;;;;;;;19.13;61.29;100620.56;5028362;28;20049;-56
2022/05/11 00:30:43;;;;;;;6.38;4.25;;;;;;;19.07;61.33;100613.16;5026389;28;20045;-57
2022/05/11 00:33:14;;;;;;;8.60;5.45;;;;;;;18.93;62.65;100611.81;5028527;28;20054;-58
2022/05/11 00:35:42;;;;;;;7.13;4.93;;;;;;;18.85;63.12;100611.69;5021107;28;20041;-56
2022/05/11 00:38:10;;;;;;;8.10;5.28;;;;;;;18.80;63.78;100608.59;5028770;28;20056;-58
2022/05/11 00:40:42;;;;;;;6.82;4.63;;;;;;;18.71;64.41;100610.31;5026550;28;20516;-54
2022/05/11 00:43:10;;;;;;;9.85;4.88;;;;;;;18.63;64.35;100610.16;5035392;28;20049;-54
2022/05/11 00:45:41;;;;;;;10.50;6.13;;;;;;;18.57;65.67;100616.06;5025801;28;20399;-57
2022/05/11 00:49:33;;;;;;;5.22;4.72;;;;;;;18.46;66.15;100637.50;5025480;28;20046;-60
2022/05/11 00:50:58;;;;;;;10.75;5.47;;;;;;;18.40;66.46;100651.41;5023388;28;20136;-60
2022/05/11 00:53:26;;;;;;;7.20;5.25;;;;;;;18.34;67.40;100660.81;5028224;28;20053;-57
2022/05/11 00:55:55;;;;;;;6.18;5.10;;;;;;;18.30;67.36;100653.25;5005962;28;20045;-56
2022/05/11 00:58:26;;;;;;;8.02;4.47;;;;;;;18.29;66.97;100638.25;5028144;28;20045;-57
2022/05/11 01:00:53;;;;;;;7.05;4.68;;;;;;;18.27;67.25;100637.53;5019745;28;20549;-58
2022/05/11 01:03:28;;;;;;;7.68;5.38;;;;;;;18.18;67.60;100641.88;5024541;28;20148;-58
2022/05/11 01:05:56;;;;;;;5.78;5.13;;;;;;;18.16;67.44;100647.34;5022277;28;20436;-57
2022/05/11 01:08:24;;;;;;;6.78;5.45;;;;;;;18.14;67.51;100643.97;5027847;28;20041;-57
2022/05/11 01:10:52;;;;;;;8.18;5.22;;;;;;;18.12;67.57;100645.94;5024554;28;20072;-58
2022/05/11 01:13:20;;;;;;;7.85;4.60;;;;;;;18.10;67.67;100645.25;5026757;28;20045;-61
2022/05/11 01:15:50;;;;;;;9.52;5.03;;;;;;;18.05;68.02;100652.78;5025309;28;20069;-58
2022/05/11 01:18:19;;;;;;;8.57;5.43;;;;;;;18.00;68.66;100633.72;5016033;28;20053;-54
2022/05/11 01:20:46;;;;;;;6.68;5.13;;;;;;;17.99;68.22;100621.38;5022820;28;20634;-59
2022/05/11 01:23:48;;;;;;;8.98;5.40;;;;;;;17.95;68.55;100618.16;5026785;28;20409;-54
2022/05/11 01:26:16;;;;;;;7.40;4.30;;;;;;;17.91;68.02;100599.91;5011913;28;20068;-58
2022/05/11 01:28:47;;;;;;;6.15;5.20;;;;;;;17.90;67.84;100595.56;5024331;28;20049;-56
2022/05/11 01:31:15;;;;;;;5.38;4.47;;;;;;;17.84;68.16;100583.66;5023777;28;20502;-58
2022/05/11 01:33:47;;;;;;;9.70;4.80;;;;;;;17.78;68.00;100578.88;5023271;28;20049;-55
2022/05/11 01:36:31;;;;;;;9.88;4.70;;;;;;;17.75;67.85;100578.31;5022767;28;20060;-55
2022/05/11 01:39:07;;;;;;;12.30;4.85;;;;;;;17.71;67.77;100585.72;5021037;28;20514;-54
2022/05/11 01:41:37;;;;;;;9.57;4.75;;;;;;;17.70;67.85;100597.34;5008349;28;20056;-56
2022/05/11 01:44:07;;;;;;;5.63;4.63;;;;;;;17.68;67.61;100592.13;5019889;28;20049;-57
2022/05/11 01:46:35;;;;;;;7.45;4.75;;;;;;;17.68;68.09;100597.47;5024081;28;20053;-56
2022/05/11 01:49:03;;;;;;;5.38;4.70;;;;;;;17.68;68.16;100594.78;5027963;28;20048;-57
2022/05/11 01:51:30;;;;;;;8.40;4.20;;;;;;;17.65;68.29;100589.78;5025138;28;20049;-52
2022/05/11 01:53:58;;;;;;;6.50;4.20;;;;;;;17.63;68.38;100581.06;5022164;28;20049;-60
2022/05/11 01:56:25;;;;;;;7.80;5.55;;;;;;;17.62;68.98;100571.41;5022744;28;20045;-53
2022/05/11 01:58:53;;;;;;;8.38;5.18;;;;;;;17.61;69.14;100568.88;5025861;28;20046;-59
2022/05/11 02:01:22;;;;;;;10.23;5.20;;;;;;;17.61;68.93;100555.56;5023928;28;20063;-52
2022/05/11 02:03:50;;;;;;;8.55;4.80;;;;;;;17.61;69.49;100553.75;5036930;28;20061;-55
2022/05/11 02:09:04;;;;;;;7.32;5.10;;;;;;;17.60;69.78;100559.19;5023569;28;20061;-57
2022/05/11 02:11:31;;;;;;;8.43;5.10;;;;;;;17.60;70.84;100559.19;5023045;28;20050;-59
2022/05/11 02:13:58;;;;;;;8.95;5.28;;;;;;;17.56;70.46;100558.66;5021911;28;20045;-56
2022/05/11 02:16:26;;;;;;;6.32;4.88;;;;;;;17.56;70.17;100555.97;5024551;28;20053;-58
2022/05/11 02:18:55;;;;;;;7.97;5.18;;;;;;;17.57;69.97;100556.81;5024726;28;20084;-57
2022/05/11 02:21:23;;;;;;;6.20;4.97;;;;;;;17.55;69.75;100559.59;5023063;28;20045;-56
2022/05/11 02:23:51;;;;;;;6.50;5.13;;;;;;;17.53;70.01;100566.06;5025602;28;20967;-55
2022/05/11 02:26:19;;;;;;;4.63;4.10;;;;;;;17.51;69.42;100570.66;5025162;28;20053;-56
2022/05/11 02:28:50;;;;;;;5.82;4.80;;;;;;;17.49;69.14;100569.97;5026447;28;20097;-56
2022/05/11 02:31:18;;;;;;;6.40;5.30;;;;;;;17.46;69.01;100563.09;5024727;28;20093;-56
2022/05/11 02:33:46;;;;;;;10.68;5.40;;;;;;;17.43;69.18;100572.19;5023570;28;20053;-55
2022/05/11 02:36:13;;;;;;;9.23;5.18;;;;;;;17.37;69.65;100564.75;5024769;28;20426;-55
2022/05/11 02:38:42;;;;;;;7.47;4.63;;;;;;;17.34;69.20;100565.03;5025608;28;20053;-60
2022/05/11 02:41:09;;;;;;;9.30;4.40;;;;;;;17.35;69.88;100577.34;5025487;28;20050;-58
2022/05/11 02:43:36;;;;;;;9.52;4.97;;;;;;;17.36;69.73;100596.81;5021527;28;20053;-57
2022/05/11 02:46:03;;;;;;;9.65;5.38;;;;;;;17.35;69.47;100600.47;5019434;28;20132;-58
2022/05/11 02:48:33;;;;;;;8.02;4.70;;;;;;;17.35;70.02;100597.78;5019121;28;20057;-57
2022/05/11 02:51:01;;;;;;;8.70;5.22;;;;;;;17.34;69.99;100591.63;5026025;28;20136;-56
2022/05/11 02:53:29;;;;;;;9.48;4.68;;;;;;;17.34;69.69;100593.47;5026786;28;20063;-54
2022/05/11 02:55:56;;;;;;;9.85;5.50;;;;;;;17.32;69.23;100590.06;5022501;28;20056;-54
2022/05/11 02:58:27;;;;;;;10.38;6.22;;;;;;;17.29;69.54;100593.88;5029147;28;20414;-55
2022/05/11 03:00:57;;;;;;;7.25;4.70;;;;;;;17.28;69.58;100597.47;5029531;28;20049;-55
2022/05/11 03:03:25;;;;;;;8.20;4.90;;;;;;;17.25;69.77;100599.59;5028884;28;20746;-53
2022/05/11 03:05:54;;;;;;;7.85;5.47;;;;;;;17.21;70.31;100605.16;5027312;28;20065;-56
2022/05/11 03:08:21;;;;;;;5.68;4.22;;;;;;;17.16;70.67;100609.22;5030518;28;20057;-56
2022/05/11 03:10:49;;;;;;;5.65;4.47;;;;;;;17.12;70.82;100608.63;5028920;28;20068;-53
2022/05/11 03:13:16;;;;;;;7.28;4.82;;;;;;;17.11;70.54;100620.25;5076966;22;20059;-53
2022/05/11 03:15:43;;;;;;;4.97;4.35;;;;;;;17.10;70.25;100617.69;5067454;28;20060;-57
2022/05/11 03:18:12;;;;;;;7.43;4.75;;;;;;;17.07;70.54;100610.84;5068339;28;20397;-53
2022/05/11 03:20:39;;;;;;;8.50;5.13;;;;;;;17.07;70.65;100623.31;5063899;28;20068;-56
2022/05/11 03:23:06;;;;;;;8.68;5.47;;;;;;;17.06;71.12;100621.59;5068047;28;20048;-55
2022/05/11 03:25:33;;;;;;;10.50;4.50;;;;;;;17.03;71.57;100621.88;5064784;28;20048;-58
2022/05/11 03:28:01;;;;;;;6.68;5.13;;;;;;;16.99;72.34;100615.97;5066366;28;20052;-54
2022/05/11 03:30:28;;;;;;;12.38;5.88;;;;;;;16.94;73.58;100615.53;5060178;28;20637;-51
2022/05/11 03:35:42;;;;;;;15.45;5.57;;;;;;;16.95;72.82;100614.56;5063266;28;20055;-52
2022/05/11 03:38:10;;;;;;;9.57;5.72;;;;;;;16.96;73.17;100618.88;5068192;28;20150;-53
2022/05/11 03:40:38;;;;;;;5.53;4.90;;;;;;;16.98;73.21;100626.75;5065016;28;20063;-52
2022/05/11 03:43:05;;;;;;;5.45;4.25;;;;;;;16.99;72.97;100629.28;5066587;28;20067;-55
2022/05/11 03:45:33;;;;;;;7.45;5.13;;;;;;;16.99;73.07;100621.28;5067192;28;20388;-53
2022/05/11 03:48:00;;;;;;;7.30;5.03;;;;;;;17.00;72.57;100622.97;5060873;28;20076;-52
2022/05/11 03:50:28;;;;;;;8.40;5.10;;;;;;;17.03;72.47;100630.69;5061203;28;20159;-52
2022/05/11 03:52:56;;;;;;;6.47;4.28;;;;;;;17.04;72.43;100629.72;5063763;28;20107;-53
2022/05/11 03:55:24;;;;;;;7.93;5.20;;;;;;;17.06;72.99;100632.22;5063941;28;20049;-56
2022/05/11 03:57:51;;;;;;;6.25;4.88;;;;;;;17.07;73.13;100633.94;5067234;28;20056;-53
2022/05/11 04:00:21;;;;;;;5.57;4.72;;;;;;;17.07;73.16;100631.28;5064352;28;20052;-55
2022/05/11 04:02:52;;;;;;;7.00;5.15;;;;;;;17.07;73.60;100640.09;5065130;28;20066;-54
2022/05/11 04:05:20;;;;;;;6.40;4.15;;;;;;;17.08;73.86;100652.41;5063106;28;20044;-54
2022/05/11 04:07:47;;;;;;;7.68;4.75;;;;;;;17.09;74.21;100650.59;5062805;28;20048;-55
2022/05/11 04:10:16;;;;;;;9.85;5.43;;;;;;;17.09;74.35;100648.78;5064971;28;20056;-54
2022/05/11 04:12:43;;;;;;;8.50;4.88;;;;;;;17.12;74.29;100647.69;5066373;28;20071;-55
2022/05/11 04:15:11;;;;;;;6.10;4.82;;;;;;;17.17;74.60;100651.63;5063669;28;20044;-56
2022/05/11 04:17:39;;;;;;;9.45;5.18;;;;;;;17.21;73.99;100649.56;5073045;28;20059;-57
2022/05/11 04:20:07;;;;;;;7.82;4.63;;;;;;;17.27;74.32;100653.50;5078072;28;20059;-58
2022/05/11 04:22:34;;;;;;;8.77;4.93;;;;;;;17.33;74.57;100648.47;5075287;28;20101;-53
2022/05/11 04:25:01;;;;;;;7.40;4.88;;;;;;;17.38;75.18;100648.94;5064396;28;20060;-52
2022/05/11 04:27:29;;;;;;;7.70;5.20;;;;;;;17.38;75.52;100645.41;5057997;28;20083;-53
2022/05/11 04:29:56;;;;;;;9.65;7.55;;;;;;;17.40;74.94;100643.47;5065899;28;20068;-52
2022/05/11 04:32:23;;;;;;;15.02;11.32;;;;;;;17.44;74.58;100643.06;5060576;28;20064;-55
2022/05/11 04:34:50;;;;;;;12.25;9.48;;;;;;;17.48;75.01;100648.97;5058635;28;20049;-55
2022/05/11 04:37:18;;;;;;;11.15;7.95;;;;;;;17.52;75.12;100642.41;5066302;28;20056;-55
2022/05/11 04:39:45;;;;;;;13.70;6.90;;;;;;;17.57;75.53;100639.34;5059131;28;20442;-55
2022/05/11 04:42:12;;;;;;;11.65;5.70;;;;;;;17.60;75.46;100637.22;5057344;28;20053;-54
2022/05/11 04:44:40;;;;;;;10.48;5.72;;;;;;;17.65;76.07;100635.03;5059836;28;20059;-55
2022/05/11 04:47:12;;;;;;;7.90;6.38;;;;;;;17.67;76.09;100635.72;5065269;28;20071;-55
2022/05/11 04:49:40;;;;;;;6.60;5.40;;;;;;;17.70;76.19;100632.78;5061506;28;20052;-55
2022/05/11 04:52:13;;;;;;;13.00;5.70;;;;;;;17.76;76.29;100638.59;5062271;28;20059;-56
2022/05/11 04:54:45;;;;;;;11.95;5.07;;;;;;;17.79;76.45;100633.00;5058762;28;20052;-55
2022/05/11 04:57:12;;;;;;;11.10;8.48;;;;;;;17.81;76.66;100639.84;5064027;28;20067;-55
2022/05/11 04:59:40;;;;;;;19.70;10.70;;;;;;;17.85;76.25;100637.75;5068050;28;20380;-55
2022/05/11 05:02:14;;;;;;;15.82;10.25;;;;;;;17.89;76.75;100641.84;5064850;28;20044;-55
2022/05/11 05:04:41;;;;;;;9.13;7.72;;;;;;;17.93;76.68;100640.59;5059301;28;20071;-58
2022/05/11 05:07:08;;;;;;;7.68;6.88;;;;;;;17.96;76.65;100637.63;5063795;28;20052;-55
2022/05/11 05:09:35;;;;;;;10.48;6.55;;;;;;;17.99;76.95;100623.19;5065013;28;20515;-53
2022/05/11 05:12:04;;;;;;;9.13;7.05;;;;;;;17.97;77.28;100631.34;5066509;28;20120;-57
2022/05/11 05:14:31;;;;;;;13.52;6.75;;;;;;;17.96;77.34;100634.97;5051410;28;20144;-56
2022/05/11 05:17:06;;;;;;;9.00;6.13;;;;;;;17.94;78.59;100636.94;5062976;28;20041;-55
2022/05/11 05:19:33;;;;;;;7.70;6.70;;;;;;;17.92;78.73;100638.88;5062102;28;20056;-54
2022/05/11 05:22:02;;;;;;;11.82;6.88;;;;;;;17.90;78.43;100635.53;5062248;28;20048;-56
2022/05/11 05:24:30;;;;;;;9.13;6.88;;;;;;;17.90;77.83;100640.84;5061039;28;20396;-56
2022/05/11 05:26:58;;;;;;;10.55;5.70;;;;;;;17.87;77.55;100635.78;5062699;28;20179;-56
2022/05/11 05:32:12;;;;;;;17.75;7.47;;;;;;;17.87;77.44;100625.97;5058212;28;20143;-57
2022/05/11 05:34:39;;;;;;;10.25;6.63;;;;;;;17.91;77.33;100627.38;5059291;28;20044;-56
2022/05/11 05:37:06;;;;;;;16.67;7.47;;;;;;;17.96;77.27;100624.31;5061273;28;20752;-54
2022/05/11 05:39:33;;;;;;;11.70;6.88;;;;;;;17.99;78.35;100626.72;5063822;28;20415;-56
2022/05/11 05:42:00;;;;;;;14.32;7.43;;;;;;;18.01;77.57;100631.88;5058638;28;20049;-56
2022/05/11 05:44:31;;;;;;;13.45;7.55;;;;;;;18.06;77.33;100632.34;5059447;28;20421;-57
2022/05/11 05:47:03;;;;;;;12.68;6.65;;;;;;;18.07;76.91;100631.34;5061050;28;20056;-56
2022/05/11 05:49:31;;;;;;;12.48;6.68;;;;;;;18.11;76.74;100636.25;5063290;28;20052;-56
2022/05/11 05:51:59;;;;;;;15.70;11.30;;;;;;;18.11;77.33;100641.59;5062214;28;20053;-57
2022/05/11 05:54:30;;;;;;;14.80;8.18;;;;;;;18.05;77.47;100639.47;5062770;28;20110;-54
2022/05/11 05:56:58;;;;;;;13.38;7.63;;;;;;;17.96;77.17;100633.13;5063451;28;20048;-56
2022/05/11 05:59:25;;;;;;;12.80;7.22;;;;;;;18.09;76.58;100635.53;5051554;28;20056;-55
2022/05/11 06:01:52;;;;;;;9.00;7.72;;;;;;;18.22;75.60;100629.94;5058232;28;20564;-56
2022/05/11 06:04:19;;;;;;;11.93;7.13;;;;;;;18.34;75.23;100636.00;5052692;28;20050;-53
2022/05/11 06:06:47;;;;;;;14.40;7.68;;;;;;;18.37;75.24;100633.03;5057551;28;20048;-57
2022/05/11 06:09:14;;;;;;;10.02;7.18;;;;;;;18.37;74.56;100627.69;5050973;28;20048;-55
2022/05/11 06:11:42;;;;;;;11.88;7.18;;;;;;;18.41;74.20;100637.09;5064653;28;20055;-53
2022/05/11 06:14:09;;;;;;;11.25;7.10;;;;;;;18.43;74.53;100643.16;5062591;28;20377;-56
2022/05/11 06:16:36;;;;;;;15.73;7.05;;;;;;;18.43;74.13;100630.66;5046637;28;20488;-56
2022/05/11 06:19:05;;;;;;;10.77;7.18;;;;;;;18.50;74.10;100638.09;5056650;28;20055;-57
2022/05/11 06:21:34;;;;;;;12.80;8.13;;;;;;;18.58;74.23;100625.72;5057536;28;20083;-53
2022/05/11 06:24:01;;;;;;;9.63;7.25;;;;;;;18.62;74.23;100628.97;5059026;28;20524;-57
2022/05/11 06:26:28;;;;;;;10.02;7.15;;;;;;;18.66;74.23;100623.19;5056098;28;20053;-56
2022/05/11 06:29:15;;;;;;;14.75;6.63;;;;;;;18.71;73.86;100626.31;5059594;28;20052;-55
2022/05/11 06:31:45;;;;;;;10.88;7.38;;;;;;;18.69;73.34;100612.28;5064743;28;20052;-56
2022/05/11 06:34:12;;;;;;;13.05;7.25;;;;;;;18.66;73.56;100615.19;5063635;28;20354;-51
2022/05/11 06:36:39;;;;;;;14.95;6.97;;;;;;;18.69;73.41;100612.28;5067595;28;20103;-56
2022/05/11 06:39:07;;;;;;;13.18;6.72;;;;;;;18.75;73.06;100596.69;5068211;28;20064;-55
2022/05/11 06:41:34;;;;;;;17.15;7.65;;;;;;;18.87;73.01;100607.06;5064061;28;20048;-53
2022/05/11 06:44:03;;;;;;;14.48;7.40;;;;;;;18.96;72.43;100586.69;5064508;28;20052;-55
2022/05/11 06:46:32;;;;;;;11.88;6.80;;;;;;;19.02;72.30;100580.75;5058270;28;20060;-55
2022/05/11 06:48:59;;;;;;;9.82;6.90;;;;;;;19.16;72.02;100595.44;5063127;28;20423;-55
2022/05/11 06:51:26;;;;;;;13.07;7.43;;;;;;;19.25;70.72;100596.41;5062759;28;20068;-55
2022/05/11 06:59:30;;;;;;;11.63;7.15;;;;;;;19.54;69.42;100597.06;5062096;28;20060;-56
2022/05/11 07:01:58;;;;;;;10.82;7.40;;;;;;;19.61;68.64;100592.03;5066912;28;20049;-53
2022/05/11 07:04:26;;;;;;;11.38;7.20;;;;;;;19.70;68.77;100580.44;5063642;28;20445;-55
2022/05/11 07:06:54;;;;;;;9.07;7.07;;;;;;;19.77;68.15;100576.19;5063814;28;20052;-55
2022/05/11 07:09:24;;;;;;;8.15;6.32;;;;;;;19.97;67.44;100568.88;5059057;28;20044;-57
2022/05/11 07:14:37;;;;;;;10.75;6.82;;;;;;;20.17;66.06;100566.84;5060085;28;20143;-56
2022/05/11 07:17:05;;;;;;;10.65;6.55;;;;;;;20.18;64.90;100558.72;5064686;28;20613;-52
2022/05/11 07:19:33;;;;;;;12.45;6.35;;;;;;;20.31;64.28;100549.44;5064199;28;20428;-54
2022/05/11 07:22:00;;;;;;;13.80;6.53;;;;;;;20.43;64.23;100540.19;5061393;28;20061;-55
2022/05/11 07:24:28;;;;;;;9.38;6.47;;;;;;;20.49;64.38;100542.28;5061353;28;20346;-56
2022/05/11 07:26:55;;;;;;;9.85;6.32;;;;;;;20.44;63.83;100537.38;5066584;28;20356;-55
2022/05/11 07:29:22;;;;;;;7.57;6.00;;;;;;;20.27;64.11;100532.06;5061752;28;20830;-55
2022/05/11 07:31:49;;;;;;;12.18;6.95;;;;;;;20.21;64.36;100533.47;5065809;28;20481;-56
2022/05/11 07:34:17;;;;;;;17.38;7.00;;;;;;;20.15;63.85;100526.94;5062783;28;20067;-52
2022/05/11 07:36:44;;;;;;;14.15;6.40;;;;;;;20.27;63.46;100524.03;5064551;28;20364;-56
2022/05/11 07:39:11;;;;;;;9.18;5.70;;;;;;;20.46;63.11;100521.16;5063803;28;20049;-55
2022/05/11 07:41:39;;;;;;;11.57;6.10;;;;;;;20.59;62.69;100518.09;5059563;28;20059;-57
2022/05/11 07:44:06;;;;;;;12.25;6.47;;;;;;;20.67;61.80;100524.34;5057043;28;20044;-55
2022/05/11 07:46:36;;;;;;;10.20;6.40;;;;;;;20.59;61.54;100524.28;5063135;28;20139;-56
2022/05/11 07:49:04;;;;;;;6.55;5.18;;;;;;;20.58;61.04;100514.59;5064341;28;20040;-57
2022/05/11 07:51:32;;;;;;;9.85;5.18;;;;;;;20.63;61.02;100525.66;5061785;28;20056;-52
2022/05/11 07:53:59;;;;;;;7.38;5.72;;;;;;;20.63;58.97;100514.94;5065180;28;20056;-55
2022/05/11 08:01:58;;;;;;;7.68;5.75;;;;;;;20.98;57.92;100516.63;5060768;28;20061;-56
2022/05/11 08:04:26;;;;;;;6.13;5.05;;;;;;;21.24;57.68;100500.50;5067021;28;20060;-54
2022/05/11 08:06:53;;;;;;;9.88;4.72;;;;;;;21.51;57.12;100506.63;5060571;28;20044;-56
2022/05/11 08:09:21;;;;;;;5.72;4.78;;;;;;;21.70;55.51;100503.66;5063853;28;20049;-55
2022/05/11 08:11:50;;;;;;;6.82;4.75;;;;;;;21.74;54.91;100498.78;5054837;28;20053;-56
2022/05/11 08:14:17;;;;;;;7.30;4.20;;;;;;;21.70;54.73;100494.75;5059667;28;20059;-55
2022/05/11 08:16:44;;;;;;;4.93;4.15;;;;;;;21.81;54.76;100490.94;5061937;28;20481;-55
2022/05/11 08:19:12;;;;;;;6.57;4.43;;;;;;;21.80;54.76;100503.50;5066929;28;20048;-52
2022/05/11 08:21:40;;;;;;;8.57;4.47;;;;;;;21.67;54.67;100487.91;5061190;28;20136;-54
2022/05/11 08:24:08;;;;;;;5.03;4.35;;;;;;;21.69;54.73;100491.25;5065471;28;20045;-55
2022/05/11 08:26:35;;;;;;;13.43;5.00;;;;;;;21.69;55.09;100490.41;5063237;28;20052;-53
2022/05/11 08:29:02;;;;;;;7.47;4.90;;;;;;;21.88;54.36;100484.72;5064765;28;20059;-54
2022/05/11 08:34:15;;;;;;;9.23;5.47;;;;;;;22.07;53.21;100480.06;5061030;28;20044;-55
2022/05/11 08:36:44;;;;;;;5.82;4.70;;;;;;;22.23;52.64;100472.84;5056680;28;20045;-54
2022/05/11 08:39:11;;;;;;;5.68;4.55;;;;;;;22.30;52.58;100475.72;5059753;28;20111;-56
2022/05/11 08:41:45;;;;;;;8.68;4.80;;;;;;;22.60;52.01;100474.09;5059258;28;20080;-55
2022/05/11 08:44:15;;;;;;;8.27;5.10;;;;;;;22.82;51.66;100467.16;5049209;28;20500;-56
2022/05/11 08:47:06;;;;;;;7.57;4.97;;;;;;;22.87;51.63;100458.59;5058379;28;20062;-56
2022/05/11 08:49:46;;;;;;;11.00;5.20;;;;;;;23.00;51.36;100449.00;5059297;28;20051;-55
2022/05/11 08:52:43;;;;;;;10.20;5.20;;;;;;;23.21;50.57;100445.69;5055007;28;20307;-57
2022/05/11 08:55:31;;;;;;;6.43;4.47;;;;;;;23.60;49.65;100447.47;5061436;28;20052;-55
2022/05/11 08:58:09;;;;;;;7.03;4.88;;;;;;;23.87;49.15;100443.41;5058412;28;20055;-57
2022/05/11 09:00:39;;;;;;;9.88;5.03;;;;;;;24.03;47.97;100450.50;5055131;28;20052;-53
2022/05/11 09:03:27;;;;;;;10.55;5.30;;;;;;;24.10;47.35;100448.75;5060120;28;20508;-54
2022/05/11 09:05:56;;;;;;;9.88;5.85;;;;;;;23.90;47.46;100439.53;5055976;28;20057;-57
2022/05/11 09:08:24;;;;;;;7.97;5.13;;;;;;;23.79;47.80;100446.19;5058839;28;20055;-56
2022/05/11 09:10:51;;;;;;;10.65;5.40;;;;;;;23.82;47.45;100429.69;5062255;28;20052;-56
2022/05/11 09:13:20;;;;;;;7.90;4.88;;;;;;;23.93;47.07;100433.78;5058810;22;20053;-66
2022/05/11 09:15:49;;;;;;;10.55;5.85;;;;;;;23.88;46.97;100434.34;5040422;28;20037;-66
2022/05/11 09:18:16;;;;;;;10.65;5.15;;;;;;;23.85;47.46;100428.47;5040091;28;20205;-66
2022/05/11 09:20:50;;;;;;;7.18;4.82;;;;;;;23.79;47.54;100432.72;5038827;28;20078;-66
2022/05/11 09:23:36;;;;;;;7.72;4.90;;;;;;;23.77;47.71;100423.16;5042414;28;20121;-66
2022/05/11 09:26:07;;;;;;;8.23;5.70;;;;;;;23.73;47.54;100428.91;5027994;28;20156;-66
2022/05/11 09:28:36;;;;;;;6.40;4.65;;;;;;;24.09;47.80;100412.13;5019399;28;20147;-67
2022/05/11 09:31:12;;;;;;;9.55;5.47;;;;;;;24.34;46.82;100401.09;5009133;28;20423;-66
2022/05/11 09:33:42;;;;;;;7.40;5.60;;;;;;;24.52;46.10;100406.97;5038075;28;20040;-67
2022/05/11 09:36:11;;;;;;;8.57;6.35;;;;;;;24.73;45.34;100408.91;5035127;28;20415;-67
2022/05/11 09:39:05;;;;;;;12.27;6.05;;;;;;;24.95;44.74;100397.16;5027386;28;20056;-67
2022/05/11 09:41:33;;;;;;;10.93;5.53;;;;;;;25.02;44.58;100402.63;5038130;28;20137;-67
2022/05/11 09:44:19;;;;;;;9.88;5.90;;;;;;;24.82;45.26;100397.00;5025507;28;20151;-67
2022/05/11 09:46:47;;;;;;;14.73;6.10;;;;;;;24.82;44.34;100386.25;5016344;28;20052;-67
2022/05/11 09:49:17;;;;;;;9.57;5.47;;;;;;;24.55;44.42;100393.16;5047179;28;20518;-66
2022/05/11 09:51:48;;;;;;;11.65;6.35;;;;;;;24.58;44.73;100389.22;5033211;28;20053;-66
2022/05/11 09:54:32;;;;;;;10.82;6.00;;;;;;;24.60;45.08;100379.13;5033911;28;20480;-66
2022/05/11 09:57:08;;;;;;;6.68;5.65;;;;;;;24.69;45.13;100372.63;5036706;28;20046;-66
2022/05/11 09:59:39;;;;;;;12.32;5.93;;;;;;;24.63;44.89;100381.44;5033425;28;20059;-66
2022/05/11 10:02:24;;;;;;;9.75;6.18;;;;;;;24.75;45.03;100369.16;5042750;28;20049;-66
2022/05/11 10:05:01;;;;;;;13.98;7.00;;;;;;;24.94;44.59;100373.09;5022397;28;20683;-66
2022/05/11 10:07:49;;;;;;;12.32;6.18;;;;;;;24.89;44.48;100359.38;5039892;28;20049;-67
2022/05/11 10:10:37;;;;;;;10.00;6.68;;;;;;;25.02;44.22;100351.44;5039807;28;20468;-66
2022/05/11 10:13:17;;;;;;;10.65;7.05;;;;;;;24.96;44.54;100344.13;5041979;28;20057;-66
2022/05/11 10:22:22;;;;;;;6.60;5.82;;;;;;;25.25;43.47;100335.97;5039177;28;20058;-66
2022/05/11 10:25:11;;;;;;;9.00;5.60;;;;;;;25.40;42.87;100319.75;5036366;28;20041;-66
2022/05/11 10:28:08;;;;;;;6.22;5.60;;;;;;;25.47;43.16;100309.00;5039718;28;20479;-66
2022/05/11 10:30:54;;;;;;;10.60;5.90;;;;;;;25.56;42.43;100315.09;5024395;28;20419;-66
2022/05/11 10:33:45;;;;;;;10.00;5.07;;;;;;;25.83;42.38;100311.56;5038470;28;20049;-66
2022/05/11 10:36:40;;;;;;;10.68;4.97;;;;;;;26.01;41.15;100302.97;5044563;28;20044;-67
2022/05/11 10:39:33;;;;;;;9.15;5.60;;;;;;;25.96;41.23;100303.56;5039375;28;21260;-66
2022/05/11 10:42:15;;;;;;;6.07;5.30;;;;;;;26.41;39.75;100301.28;5044971;28;20065;-66
2022/05/11 10:49:21;;;;;;;11.95;5.07;;;;;;;26.74;38.46;100292.50;5038054;28;20043;-66
2022/05/11 10:52:10;;;;;;;9.27;4.82;;;;;;;26.45;38.03;100294.50;5051362;28;20699;-66
2022/05/11 10:55:15;;;;;;;15.70;5.03;;;;;;;26.10;39.02;100295.53;5049033;28;20131;-66
2022/05/11 10:57:45;;;;;;;7.63;4.78;;;;;;;26.11;39.14;100272.94;5048944;28;20183;-66
2022/05/11 11:00:21;;;;;;;6.75;4.10;;;;;;;26.58;38.84;100279.38;5040310;28;20057;-66
2022/05/11 11:03:19;;;;;;;6.88;4.13;;;;;;;26.63;37.97;100268.81;5025820;28;20510;-67
2022/05/11 11:08:49;;;;;;;6.18;4.05;;;;;;;26.61;37.72;100255.50;5034967;28;20049;-67
2022/05/11 11:11:35;;;;;;;7.93;4.25;;;;;;;26.26;37.97;100252.03;5035544;28;20060;-67
2022/05/11 11:14:05;;;;;;;6.63;4.15;;;;;;;26.48;38.18;100252.78;5033798;28;20420;-67
2022/05/11 11:16:52;;;;;;;7.82;4.00;;;;;;;26.43;37.88;100266.88;5039160;28;20119;-67
2022/05/11 11:19:20;;;;;;;13.57;4.30;;;;;;;26.79;37.82;100268.41;5042145;28;20057;-67
2022/05/11 11:21:47;;;;;;;8.82;4.32;;;;;;;27.32;37.18;100248.75;5019959;28;20045;-67
2022/05/11 11:24:25;;;;;;;6.32;4.18;;;;;;;27.82;36.21;100241.81;5034076;28;20056;-68
2022/05/11 11:26:57;;;;;;;4.90;4.03;;;;;;;27.90;35.40;100238.06;5040480;28;20053;-68
2022/05/11 11:29:39;;;;;;;10.15;4.30;;;;;;;27.59;35.51;100234.13;5036626;28;20124;-67
2022/05/11 11:32:14;;;;;;;7.07;3.35;;;;;;;27.70;34.20;100219.97;5043041;28;20124;-68
2022/05/11 11:35:23;;;;;;;8.57;3.60;;;;;;;27.76;34.54;100223.75;5041644;28;20073;-67
2022/05/11 11:38:00;;;;;;;8.07;3.53;;;;;;;27.83;34.71;100224.56;5024963;28;20041;-69
2022/05/11 11:40:29;;;;;;;8.50;3.08;;;;;;;27.78;34.46;100218.94;5016707;28;20045;-67
2022/05/11 11:42:57;;;;;;;11.23;3.50;;;;;;;27.88;34.07;100215.81;5043540;28;20057;-67
2022/05/11 11:45:25;;;;;;;5.82;3.75;;;;;;;27.78;34.15;100210.81;5045156;28;20044;-67
2022/05/11 11:48:03;;;;;;;16.75;3.67;;;;;;;27.46;34.40;100201.72;5038668;28;20069;-67
2022/05/11 11:50:49;;;;;;;7.68;3.70;;;;;;;27.63;34.65;100207.50;5034074;28;20056;-67
2022/05/11 11:53:34;;;;;;;10.10;3.58;;;;;;;27.82;34.00;100203.94;5052123;28;20053;-67
2022/05/11 11:56:44;;;;;;;8.45;3.20;;;;;;;28.56;32.89;100197.16;5044334;28;20084;-68
2022/05/11 11:59:32;;;;;;;10.02;3.75;;;;;;;28.77;31.41;100185.97;4926802;28;20133;-67
2022/05/11 12:02:09;;;;;;;9.20;3.30;;;;;;;28.64;31.71;100187.94;4928641;28;20070;-66
2022/05/11 12:04:51;;;;;;;15.00;3.38;;;;;;;28.69;31.33;100188.13;5000058;28;20053;-67
2022/05/11 12:16:56;;;;;;;9.85;2.72;;;;;;;29.31;27.08;100178.22;5020919;28;20052;-66
2022/05/11 12:19:29;;;;;;;10.18;3.42;;;;;;;29.13;27.14;100162.75;5040701;28;20393;-66
2022/05/11 12:22:20;;;;;;;9.13;2.75;;;;;;;29.09;27.83;100160.69;5024448;28;20067;-66
2022/05/11 12:24:55;;;;;;;10.02;2.78;;;;;;;28.68;27.67;100173.72;5040869;28;20502;-66
2022/05/11 12:27:26;;;;;;;;;;;;;;;28.27;28.70;100163.34;5018520;28;20046;-67
2022/05/11 12:29:59;;;;;;;10.23;2.85;;;;;;;28.58;28.53;100161.72;5036493;28;19921;-66